Time;durP1;ratioP1;P1;durP2;ratioP2;P2;SDS_P1;SDS_P2;PMS_P1;PMS_P2;Temp;Humidity;BMP_temperature;BMP_pressure;BME280_temperature;BME280_humidity;BME280_pressure;Samples;Min_cycle;Max_cycle;Signal;HPM_P1;HPM_P2
2023/03/03 00:01:31;;;;;;;27.63;11.68;;;3.50;99.90;;;;;;6159287;23;20344;-87
2023/03/03 00:03:58;;;;;;;26.58;12.45;;;3.50;99.90;;;;;;6183972;23;20016;-87
2023/03/03 00:06:24;;;;;;;26.15;12.73;;;3.50;99.90;;;;;;6159092;23;20011;-87
2023/03/03 00:08:50;;;;;;;24.77;11.80;;;3.50;99.90;;;;;;6183455;23;20021;-87
2023/03/03 00:11:16;;;;;;;27.02;12.07;;;3.50;99.90;;;;;;6159023;23;20019;-87
2023/03/03 00:13:53;;;;;;;22.02;11.30;;;3.50;99.90;;;;;;6183883;23;20076;-87
2023/03/03 00:16:24;;;;;;;24.95;10.38;;;3.50;99.90;;;;;;6183818;23;20024;-87
2023/03/03 00:18:50;;;;;;;23.85;11.38;;;3.50;99.90;;;;;;6158540;23;20010;-87
2023/03/03 00:21:29;;;;;;;21.08;10.25;;;3.50;99.90;;;;;;6183809;23;20501;-88
2023/03/03 00:24:21;;;;;;;25.58;11.35;;;3.50;99.90;;;;;;6183966;23;20095;-88
2023/03/03 00:26:51;;;;;;;23.15;11.05;;;3.50;99.90;;;;;;6154707;23;20104;-87
2023/03/03 00:29:39;;;;;;;21.58;11.05;;;3.50;99.90;;;;;;6183287;23;20016;-88
2023/03/03 00:32:14;;;;;;;20.77;10.68;;;3.50;99.90;;;;;;6183926;23;20024;-88
2023/03/03 00:34:40;;;;;;;21.98;10.80;;;3.50;99.90;;;;;;6183716;23;20021;-88
2023/03/03 00:37:22;;;;;;;24.02;11.18;;;3.50;99.90;;;;;;6158961;23;20025;-88
2023/03/03 00:39:48;;;;;;;19.35;9.85;;;3.50;99.90;;;;;;6158752;23;20016;-88
2023/03/03 00:42:18;;;;;;;21.98;11.02;;;3.50;99.90;;;;;;6158892;23;20039;-88
2023/03/03 00:44:54;;;;;;;22.13;10.80;;;3.50;99.90;;;;;;6182842;23;20009;-88
2023/03/03 00:47:35;;;;;;;25.10;11.13;;;3.50;99.90;;;;;;6209437;23;20049;-88
2023/03/03 00:50:10;;;;;;;18.67;9.95;;;3.50;99.90;;;;;;6163129;23;20009;-88
2023/03/03 00:52:44;;;;;;;21.75;10.93;;;3.50;99.90;;;;;;6184462;23;20013;-87
2023/03/03 00:55:10;;;;;;;19.88;9.98;;;3.50;99.90;;;;;;6158983;23;20076;-88
2023/03/03 00:57:36;;;;;;;21.80;11.48;;;3.50;99.90;;;;;;6183062;23;20376;-87
2023/03/03 01:00:02;;;;;;;20.33;10.70;;;3.40;99.90;;;;;;6183488;23;20464;-87
2023/03/03 01:02:28;;;;;;;24.90;11.63;;;3.50;99.90;;;;;;6183529;23;20017;-88
2023/03/03 01:04:56;;;;;;;21.55;10.23;;;3.40;99.90;;;;;;6182563;23;20464;-88
2023/03/03 01:07:22;;;;;;;22.80;10.27;;;3.40;99.90;;;;;;6157118;23;20005;-88
2023/03/03 01:09:48;;;;;;;21.80;10.45;;;3.50;99.90;;;;;;6157436;23;20039;-88
2023/03/03 01:12:14;;;;;;;15.90;8.52;;;3.50;99.90;;;;;;6182168;23;20009;-88
2023/03/03 01:14:39;;;;;;;22.23;9.55;;;3.50;99.90;;;;;;6157646;23;20013;-88
2023/03/03 01:17:05;;;;;;;19.25;8.55;;;3.40;99.90;;;;;;6182847;23;20005;-88
2023/03/03 01:19:31;;;;;;;17.88;9.40;;;3.40;99.90;;;;;;6182596;23;20487;-87
2023/03/03 01:21:57;;;;;;;20.58;10.45;;;3.40;99.90;;;;;;6158090;23;20017;-88
2023/03/03 01:24:22;;;;;;;19.50;9.77;;;3.40;99.90;;;;;;6157986;23;20020;-88
2023/03/03 01:26:48;;;;;;;25.00;11.80;;;3.40;99.90;;;;;;6182909;23;20050;-87
2023/03/03 01:29:13;;;;;;;22.13;9.60;;;3.50;99.90;;;;;;6182335;23;20151;-87
2023/03/03 01:31:39;;;;;;;23.42;10.52;;;3.40;99.90;;;;;;6158211;23;20490;-88
2023/03/03 01:34:06;;;;;;;20.92;10.02;;;3.50;99.90;;;;;;6158288;23;20058;-88
2023/03/03 01:36:32;;;;;;;21.63;9.63;;;3.40;99.90;;;;;;6157972;23;20048;-87
2023/03/03 01:38:58;;;;;;;20.50;8.27;;;3.40;99.90;;;;;;6182291;23;20017;-87
2023/03/03 01:41:28;;;;;;;21.35;9.50;;;3.40;99.90;;;;;;6182847;23;20320;-87
2023/03/03 01:43:55;;;;;;;19.73;9.30;;;3.40;99.90;;;;;;6157938;23;20448;-86
2023/03/03 01:46:23;;;;;;;21.58;10.20;;;3.40;99.90;;;;;;6182862;23;20013;-86
2023/03/03 01:48:52;;;;;;;18.60;8.60;;;3.30;99.90;;;;;;6157264;23;20027;-88
2023/03/03 01:51:45;;;;;;;20.05;9.52;;;3.40;99.90;;;;;;6158042;23;20411;-87
2023/03/03 01:54:17;;;;;;;19.55;8.43;;;3.40;99.90;;;;;;6182817;23;20103;-87
2023/03/03 01:56:43;;;;;;;20.08;9.48;;;3.30;99.90;;;;;;6158099;23;20518;-87
2023/03/03 01:59:23;;;;;;;20.70;9.95;;;3.30;99.90;;;;;;6182298;23;20384;-87
2023/03/03 02:01:49;;;;;;;15.80;7.93;;;3.30;99.90;;;;;;6182867;23;20096;-88
2023/03/03 02:04:16;;;;;;;20.35;9.23;;;3.30;99.90;;;;;;6158074;23;20448;-87
2023/03/03 02:06:47;;;;;;;20.15;8.68;;;3.30;99.90;;;;;;6157698;23;20454;-88
2023/03/03 02:09:28;;;;;;;23.15;9.45;;;3.30;99.90;;;;;;6182477;23;20013;-88
2023/03/03 02:11:58;;;;;;;22.48;10.02;;;3.30;99.90;;;;;;6157729;23;20017;-88
2023/03/03 02:14:24;;;;;;;20.58;9.60;;;3.30;99.90;;;;;;6157273;23;20491;-88
2023/03/03 02:16:51;;;;;;;18.02;9.13;;;3.30;99.90;;;;;;6181720;23;20017;-88
2023/03/03 02:19:36;;;;;;;18.42;8.48;;;3.30;99.90;;;;;;6180793;23;20392;-88
2023/03/03 02:22:02;;;;;;;21.08;9.95;;;3.30;99.90;;;;;;6157078;23;20419;-88
2023/03/03 02:24:41;;;;;;;20.50;9.43;;;3.30;99.90;;;;;;6182610;23;20459;-88
2023/03/03 02:27:07;;;;;;;22.98;10.80;;;3.30;99.90;;;;;;6158096;23;20013;-88
2023/03/03 02:29:32;;;;;;;22.95;9.90;;;3.30;99.90;;;;;;6157186;23;20024;-88
2023/03/03 02:31:58;;;;;;;21.10;9.48;;;3.30;99.90;;;;;;6182794;23;20017;-88
2023/03/03 02:34:24;;;;;;;23.15;9.32;;;3.30;99.90;;;;;;6186206;23;20360;-88
2023/03/03 02:36:49;;;;;;;20.45;9.18;;;3.20;99.90;;;;;;6187607;23;20020;-88
2023/03/03 02:39:25;;;;;;;21.83;9.32;;;3.30;99.90;;;;;;6162258;23;20012;-88
2023/03/03 02:42:08;;;;;;;18.55;8.73;;;3.30;99.90;;;;;;6162793;23;20005;-88
2023/03/03 02:44:34;;;;;;;19.85;8.10;;;3.30;99.90;;;;;;6187505;23;20013;-88
2023/03/03 02:47:00;;;;;;;19.27;7.80;;;3.30;99.90;;;;;;6187538;23;20523;-88
2023/03/03 02:49:28;;;;;;;16.38;8.25;;;3.30;99.90;;;;;;6161972;23;20063;-88
2023/03/03 02:51:54;;;;;;;19.27;8.40;;;3.20;99.90;;;;;;6161548;23;20020;-88
2023/03/03 02:54:21;;;;;;;27.48;8.52;;;3.20;99.90;;;;;;6185994;23;20467;-88
2023/03/03 02:56:47;;;;;;;19.08;8.80;;;3.20;99.90;;;;;;6161455;23;20016;-87
2023/03/03 02:59:13;;;;;;;18.33;7.93;;;3.20;99.90;;;;;;6186103;23;20329;-88
2023/03/03 03:01:40;;;;;;;17.88;7.85;;;3.30;99.90;;;;;;6187465;23;20048;-88
2023/03/03 03:04:11;;;;;;;17.05;7.30;;;3.20;99.90;;;;;;6187257;23;20022;-88
2023/03/03 03:06:37;;;;;;;15.45;6.53;;;3.20;99.90;;;;;;6187405;23;20088;-88
2023/03/03 03:09:05;;;;;;;14.38;5.40;;;3.30;99.90;;;;;;6186833;23;20016;-88
2023/03/03 03:11:31;;;;;;;15.90;6.28;;;3.30;99.90;;;;;;6162579;23;20092;-87
2023/03/03 03:13:57;;;;;;;11.35;4.72;;;3.30;99.90;;;;;;6162545;23;20103;-87
2023/03/03 03:16:23;;;;;;;13.23;5.95;;;3.30;99.90;;;;;;6187227;23;20044;-88
2023/03/03 03:18:49;;;;;;;14.02;5.15;;;3.20;99.90;;;;;;6162014;23;20044;-87
2023/03/03 03:21:15;;;;;;;14.70;6.03;;;3.20;99.90;;;;;;6161217;23;20016;-87
2023/03/03 03:23:41;;;;;;;13.48;6.00;;;3.20;99.90;;;;;;6161313;23;20020;-87
2023/03/03 03:26:07;;;;;;;14.52;6.07;;;3.20;99.90;;;;;;6161232;23;20048;-87
2023/03/03 03:28:34;;;;;;;16.15;6.78;;;3.20;99.90;;;;;;6160921;23;20020;-87
2023/03/03 03:31:00;;;;;;;22.23;6.65;;;3.20;99.90;;;;;;6188484;23;20019;-87
2023/03/03 03:33:29;;;;;;;20.90;7.13;;;3.30;99.90;;;;;;6189204;23;20012;-87
2023/03/03 03:35:55;;;;;;;18.20;6.60;;;3.30;99.90;;;;;;6163283;23;20021;-87
2023/03/03 03:38:22;;;;;;;16.70;6.55;;;3.20;99.90;;;;;;6187660;23;20017;-87
2023/03/03 03:40:48;;;;;;;30.27;7.28;;;3.20;99.90;;;;;;6188135;23;20013;-87
2023/03/03 03:43:13;;;;;;;15.82;6.85;;;3.20;99.90;;;;;;6163296;23;20521;-87
2023/03/03 03:45:42;;;;;;;16.35;6.53;;;3.20;99.90;;;;;;6164040;23;20015;-87
2023/03/03 03:48:07;;;;;;;15.30;6.68;;;3.20;99.90;;;;;;6188517;23;20478;-88
2023/03/03 03:50:33;;;;;;;17.38;6.97;;;3.20;99.90;;;;;;6164287;23;20027;-87
2023/03/03 03:52:58;;;;;;;20.90;6.20;;;3.30;99.90;;;;;;6188907;23;20025;-87
2023/03/03 03:55:24;;;;;;;20.98;7.85;;;3.20;99.90;;;;;;6188429;23;20458;-87
2023/03/03 03:57:50;;;;;;;18.33;6.85;;;3.20;99.90;;;;;;6163842;23;20028;-87
2023/03/03 04:00:16;;;;;;;28.08;7.00;;;3.20;99.90;;;;;;6188832;23;20009;-87
2023/03/03 04:02:42;;;;;;;16.05;6.00;;;3.20;99.90;;;;;;6164188;23;20475;-87
2023/03/03 04:05:07;;;;;;;14.65;5.78;;;3.20;99.90;;;;;;6188747;23;20012;-87
2023/03/03 04:07:33;;;;;;;24.25;8.00;;;3.20;99.90;;;;;;6188523;23;20478;-88
2023/03/03 04:09:59;;;;;;;18.42;7.13;;;3.20;99.90;;;;;;6188442;23;20020;-87
2023/03/03 04:12:24;;;;;;;21.38;6.82;;;3.20;99.90;;;;;;6187810;23;20027;-87
2023/03/03 04:14:50;;;;;;;16.58;6.57;;;3.20;99.90;;;;;;6187828;23;20028;-87
2023/03/03 04:17:21;;;;;;;17.42;7.13;;;3.20;99.90;;;;;;6162648;23;20027;-87
2023/03/03 04:19:47;;;;;;;18.73;7.05;;;3.20;99.90;;;;;;6188390;23;20119;-88
2023/03/03 04:22:14;;;;;;;18.98;8.25;;;3.30;99.90;;;;;;6188872;23;20397;-88
2023/03/03 04:24:40;;;;;;;18.65;8.30;;;3.30;99.90;;;;;;6164063;23;20017;-87
2023/03/03 04:27:08;;;;;;;18.83;8.43;;;3.30;99.90;;;;;;6163895;23;20016;-87
2023/03/03 04:29:34;;;;;;;18.23;7.43;;;3.20;99.90;;;;;;6163236;23;20471;-87
2023/03/03 04:31:59;;;;;;;19.30;8.20;;;3.30;99.90;;;;;;6188633;23;20012;-87
2023/03/03 04:34:25;;;;;;;15.10;6.28;;;3.30;99.90;;;;;;6188426;23;20012;-87
2023/03/03 04:36:51;;;;;;;20.17;6.72;;;3.30;99.90;;;;;;6163468;23;20079;-87
2023/03/03 04:39:16;;;;;;;25.83;9.20;;;3.30;99.90;;;;;;6186996;23;20056;-87
2023/03/03 04:41:42;;;;;;;18.48;6.97;;;3.30;99.90;;;;;;6187330;23;20079;-87
2023/03/03 04:44:08;;;;;;;19.25;7.15;;;3.30;99.90;;;;;;6162681;23;20470;-87
2023/03/03 04:46:33;;;;;;;19.45;6.82;;;3.30;99.90;;;;;;6202375;23;20024;-87
2023/03/03 04:48:59;;;;;;;18.40;7.75;;;3.30;99.90;;;;;;6176304;23;20056;-88
2023/03/03 04:51:24;;;;;;;17.45;7.47;;;3.30;99.90;;;;;;6216988;23;20023;-87
2023/03/03 04:53:50;;;;;;;20.60;7.43;;;3.30;99.90;;;;;;6197599;23;20028;-87
2023/03/03 04:56:15;;;;;;;21.55;8.27;;;3.30;99.90;;;;;;6189361;23;20016;-87
2023/03/03 04:58:41;;;;;;;18.63;8.32;;;3.40;99.90;;;;;;6187967;23;20017;-87
2023/03/03 05:01:09;;;;;;;21.15;8.60;;;3.40;99.90;;;;;;6163680;23;20035;-86
2023/03/03 05:03:34;;;;;;;17.50;7.30;;;3.30;99.90;;;;;;6188354;23;20010;-87
2023/03/03 05:06:00;;;;;;;24.50;9.00;;;3.40;99.90;;;;;;6188361;23;20095;-87
2023/03/03 05:08:25;;;;;;;22.50;7.57;;;3.40;99.90;;;;;;6187933;23;20017;-87
2023/03/03 05:10:54;;;;;;;19.30;7.38;;;3.40;99.90;;;;;;6188434;23;20092;-87
2023/03/03 05:13:20;;;;;;;21.02;7.28;;;3.40;99.90;;;;;;6188410;23;20021;-87
2023/03/03 05:15:50;;;;;;;20.73;9.02;;;3.40;99.90;;;;;;6163182;23;20023;-87
2023/03/03 05:18:18;;;;;;;20.88;8.32;;;3.40;99.90;;;;;;6161844;23;20067;-87
2023/03/03 05:20:44;;;;;;;17.05;7.63;;;3.40;99.90;;;;;;6187077;23;20012;-87
2023/03/03 05:23:09;;;;;;;18.17;8.23;;;3.40;99.90;;;;;;6162379;23;20447;-87
2023/03/03 05:25:35;;;;;;;19.42;7.85;;;3.40;99.90;;;;;;6187133;23;20058;-87
2023/03/03 05:28:01;;;;;;;19.20;7.82;;;3.40;99.90;;;;;;6187748;23;20101;-87
2023/03/03 05:30:26;;;;;;;17.70;7.47;;;3.40;99.90;;;;;;6188099;23;20020;-87
2023/03/03 05:32:52;;;;;;;21.08;7.43;;;3.40;99.90;;;;;;6163310;23;20451;-87
2023/03/03 05:35:18;;;;;;;19.73;7.05;;;3.50;99.90;;;;;;6163302;23;20071;-87
2023/03/03 05:37:46;;;;;;;17.85;8.10;;;3.40;99.90;;;;;;6162586;23;20474;-87
2023/03/03 05:40:13;;;;;;;17.48;7.72;;;3.50;99.90;;;;;;6187821;23;20063;-87
2023/03/03 05:42:39;;;;;;;23.08;8.90;;;3.50;99.90;;;;;;6188234;23;20024;-87
2023/03/03 05:45:05;;;;;;;17.98;8.15;;;3.50;99.90;;;;;;6188015;23;20013;-87
2023/03/03 05:47:31;;;;;;;18.98;7.30;;;3.50;99.90;;;;;;6187444;23;20335;-86
2023/03/03 05:49:56;;;;;;;21.08;8.05;;;3.50;99.90;;;;;;6163217;23;20463;-87
2023/03/03 05:52:23;;;;;;;23.58;7.55;;;3.50;99.90;;;;;;6187134;23;20017;-87
2023/03/03 05:54:49;;;;;;;18.67;7.22;;;3.50;99.90;;;;;;6187078;23;20467;-87
2023/03/03 05:57:15;;;;;;;15.07;6.47;;;3.50;99.90;;;;;;6161808;23;20023;-86
2023/03/03 05:59:40;;;;;;;17.27;6.95;;;3.50;99.90;;;;;;6186169;23;20354;-87
2023/03/03 06:02:06;;;;;;;19.42;7.93;;;3.50;99.90;;;;;;6186674;23;20017;-87
2023/03/03 06:04:32;;;;;;;18.58;8.32;;;3.50;99.90;;;;;;6158212;23;20456;-87
2023/03/03 06:06:58;;;;;;;15.82;6.60;;;3.50;99.90;;;;;;6160799;23;20009;-87
2023/03/03 06:09:25;;;;;;;20.52;7.10;;;3.50;99.90;;;;;;6185540;23;20024;-87
2023/03/03 06:11:52;;;;;;;20.77;8.73;;;3.50;99.90;;;;;;6186587;23;20095;-87
2023/03/03 06:14:21;;;;;;;20.73;7.35;;;3.50;99.90;;;;;;6186168;23;20009;-87
2023/03/03 06:16:47;;;;;;;17.17;6.85;;;3.50;99.90;;;;;;6185821;23;20020;-87
2023/03/03 06:19:13;;;;;;;21.02;7.55;;;3.50;99.90;;;;;;6161352;23;20052;-86
2023/03/03 06:21:39;;;;;;;30.20;8.00;;;3.50;99.90;;;;;;6185823;23;20698;-87
2023/03/03 06:24:05;;;;;;;16.38;7.53;;;3.50;99.90;;;;;;6185315;23;20317;-87
2023/03/03 06:26:31;;;;;;;17.08;7.30;;;3.50;99.90;;;;;;6185604;23;20452;-87
2023/03/03 06:28:57;;;;;;;24.23;6.88;;;3.50;99.90;;;;;;6184644;23;20017;-87
2023/03/03 06:31:23;;;;;;;18.42;7.60;;;3.40;99.90;;;;;;6186104;23;20019;-87
2023/03/03 06:33:50;;;;;;;21.38;7.85;;;3.50;99.90;;;;;;6186469;23;20024;-86
2023/03/03 06:36:16;;;;;;;18.25;6.82;;;3.40;99.90;;;;;;6185780;23;20020;-86
2023/03/03 06:38:41;;;;;;;13.88;5.97;;;3.50;99.90;;;;;;6185581;23;20083;-87
2023/03/03 06:41:07;;;;;;;15.73;5.90;;;3.40;99.90;;;;;;6186719;23;20016;-88
2023/03/03 06:43:34;;;;;;;15.88;7.07;;;3.40;99.90;;;;;;6186481;23;20020;-87
2023/03/03 06:46:00;;;;;;;16.80;7.00;;;3.40;99.90;;;;;;6161674;23;20021;-88
2023/03/03 06:48:25;;;;;;;19.77;6.90;;;3.40;99.90;;;;;;6186683;23;20025;-88
2023/03/03 06:50:51;;;;;;;15.07;6.30;;;3.40;99.90;;;;;;6187005;23;20467;-88
2023/03/03 06:53:17;;;;;;;16.35;6.97;;;3.40;99.90;;;;;;6161652;23;20024;-87
2023/03/03 06:55:43;;;;;;;16.38;7.05;;;3.40;99.90;;;;;;6186177;23;20092;-87
2023/03/03 06:58:16;;;;;;;16.30;6.80;;;3.50;99.90;;;;;;6160164;23;20024;-87
2023/03/03 07:00:52;;;;;;;17.10;7.25;;;3.50;99.90;;;;;;6160998;23;20020;-87
2023/03/03 07:03:24;;;;;;;15.30;6.65;;;3.50;99.90;;;;;;6185322;23;20019;-87
2023/03/03 07:05:51;;;;;;;18.50;7.85;;;3.50;99.90;;;;;;6187964;23;20008;-87
2023/03/03 07:08:22;;;;;;;21.27;7.47;;;3.50;99.90;;;;;;6162028;23;20023;-87
2023/03/03 07:10:49;;;;;;;19.65;7.72;;;3.60;99.90;;;;;;6189597;23;20012;-87
2023/03/03 07:13:18;;;;;;;16.95;6.95;;;3.60;99.90;;;;;;6189646;23;20455;-87
2023/03/03 07:15:44;;;;;;;17.05;7.15;;;3.60;99.90;;;;;;6189696;23;20043;-88
2023/03/03 07:18:28;;;;;;;17.73;7.15;;;3.60;99.90;;;;;;6188595;23;20096;-87
2023/03/03 07:20:54;;;;;;;17.80;8.25;;;3.70;99.90;;;;;;6189359;23;20021;-88
2023/03/03 07:23:24;;;;;;;17.13;6.85;;;3.70;99.90;;;;;;6161373;23;20024;-87
2023/03/03 07:25:52;;;;;;;19.95;7.68;;;3.80;99.90;;;;;;6187837;23;20016;-87
2023/03/03 07:28:28;;;;;;;17.85;7.68;;;3.80;99.90;;;;;;6186889;23;20031;-87
2023/03/03 07:30:56;;;;;;;18.42;8.00;;;3.80;99.90;;;;;;6187417;23;20343;-87
2023/03/03 07:33:27;;;;;;;17.60;7.13;;;3.90;99.90;;;;;;6160761;23;20052;-87
2023/03/03 07:35:56;;;;;;;18.75;7.22;;;3.90;99.90;;;;;;6162948;23;20055;-87
2023/03/03 07:38:30;;;;;;;21.80;9.05;;;3.90;99.90;;;;;;6163340;23;20012;-87
2023/03/03 07:41:01;;;;;;;20.67;8.82;;;4.00;99.90;;;;;;6188635;23;20046;-87
2023/03/03 07:43:42;;;;;;;19.95;9.00;;;4.00;99.90;;;;;;6163251;23;20062;-87
2023/03/03 07:46:28;;;;;;;19.80;8.63;;;4.10;99.90;;;;;;6163470;23;20009;-87
2023/03/03 07:48:56;;;;;;;19.02;7.82;;;4.10;99.90;;;;;;6188209;23;20021;-87
2023/03/03 07:51:25;;;;;;;19.63;8.02;;;4.20;99.90;;;;;;6188489;23;20029;-87
2023/03/03 07:54:10;;;;;;;20.55;8.20;;;4.20;99.90;;;;;;6162385;23;20099;-87
2023/03/03 07:56:36;;;;;;;18.25;7.82;;;4.30;99.90;;;;;;6162644;23;20363;-88
2023/03/03 07:59:23;;;;;;;18.02;7.70;;;4.30;99.90;;;;;;6161837;23;20020;-87
2023/03/03 08:01:57;;;;;;;20.00;7.93;;;4.30;99.90;;;;;;6162648;23;20060;-87
2023/03/03 08:04:27;;;;;;;21.13;8.60;;;4.40;99.90;;;;;;6162884;23;20115;-87
2023/03/03 08:06:57;;;;;;;18.27;8.35;;;4.40;99.90;;;;;;6162993;23;20543;-87
2023/03/03 08:09:50;;;;;;;19.08;7.68;;;4.50;99.90;;;;;;6162910;23;20394;-87
2023/03/03 08:12:40;;;;;;;22.27;9.75;;;4.50;99.90;;;;;;6187889;23;20016;-87
2023/03/03 08:15:30;;;;;;;20.50;7.90;;;4.50;99.90;;;;;;6186843;23;20091;-87
2023/03/03 08:17:55;;;;;;;17.40;8.07;;;4.60;99.90;;;;;;6187293;23;20012;-87
2023/03/03 08:20:24;;;;;;;17.52;8.40;;;4.60;99.90;;;;;;6188507;23;20518;-89
2023/03/03 08:22:50;;;;;;;19.17;7.22;;;4.70;99.90;;;;;;6187552;23;20013;-89
2023/03/03 08:25:15;;;;;;;19.77;8.18;;;4.80;99.90;;;;;;6187038;23;20088;-88
2023/03/03 08:27:41;;;;;;;17.33;7.90;;;4.80;99.90;;;;;;6186693;23;20419;-87
2023/03/03 08:30:07;;;;;;;17.60;7.38;;;4.90;99.90;;;;;;6187313;23;20016;-88
2023/03/03 08:32:32;;;;;;;17.83;7.82;;;4.90;99.90;;;;;;6163638;23;20075;-88
2023/03/03 08:34:58;;;;;;;19.02;7.63;;;5.10;99.90;;;;;;6188229;23;20021;-88
2023/03/03 08:37:23;;;;;;;19.63;7.95;;;5.20;99.90;;;;;;6187720;23;20455;-88
2023/03/03 08:39:49;;;;;;;24.60;8.75;;;5.20;99.90;;;;;;6163594;23;20479;-88
2023/03/03 08:42:15;;;;;;;18.08;7.85;;;5.20;99.90;;;;;;6188655;23;20013;-87
2023/03/03 08:44:40;;;;;;;19.60;9.07;;;5.20;99.90;;;;;;6162722;23;20388;-88
2023/03/03 08:47:06;;;;;;;20.13;8.63;;;5.30;99.90;;;;;;6163215;23;20012;-88
2023/03/03 08:49:31;;;;;;;19.20;7.95;;;5.30;99.90;;;;;;6187986;23;20066;-86
2023/03/03 08:51:57;;;;;;;19.65;8.93;;;5.30;99.90;;;;;;6202501;23;20016;-88
2023/03/03 08:54:23;;;;;;;17.80;7.20;;;5.20;99.90;;;;;;6164992;23;20012;-89
2023/03/03 08:56:49;;;;;;;17.55;7.70;;;5.20;99.90;;;;;;6189844;23;20059;-88
2023/03/03 08:59:14;;;;;;;16.45;7.63;;;5.20;99.90;;;;;;6188741;23;20048;-88
2023/03/03 09:01:42;;;;;;;15.30;7.00;;;5.30;99.90;;;;;;6189113;23;20013;-88
2023/03/03 09:04:07;;;;;;;18.65;8.15;;;5.30;99.90;;;;;;6187657;23;20384;-87
2023/03/03 09:06:33;;;;;;;19.08;8.82;;;5.30;99.90;;;;;;6187314;23;20024;-88
2023/03/03 09:08:59;;;;;;;17.92;8.57;;;5.30;99.90;;;;;;6161958;23;20016;-88
2023/03/03 09:11:26;;;;;;;17.30;7.65;;;5.40;99.90;;;;;;6186673;23;20027;-88
2023/03/03 09:14:12;;;;;;;17.98;7.00;;;5.40;99.90;;;;;;6162222;23;20047;-88
2023/03/03 09:16:42;;;;;;;17.77;6.90;;;5.40;99.90;;;;;;6163260;23;20537;-90
2023/03/03 09:19:23;;;;;;;16.83;7.25;;;5.40;99.90;;;;;;6162559;23;20028;-88
2023/03/03 09:21:54;;;;;;;17.77;7.10;;;5.40;99.90;;;;;;6162976;23;20012;-89
2023/03/03 09:24:28;;;;;;;18.42;7.28;;;5.50;99.90;;;;;;6187467;23;20013;-89
2023/03/03 09:26:54;;;;;;;19.77;7.75;;;5.60;99.90;;;;;;6162902;23;20456;-88
2023/03/03 09:29:23;;;;;;;16.17;6.97;;;5.80;99.90;;;;;;6162473;23;20478;-89
2023/03/03 09:31:55;;;;;;;15.57;7.28;;;5.90;99.90;;;;;;6162675;23;20091;-88
2023/03/03 09:34:41;;;;;;;17.42;7.03;;;6.00;99.90;;;;;;6162645;23;20603;-89
2023/03/03 09:37:27;;;;;;;17.20;6.93;;;6.20;99.90;;;;;;6162650;23;20351;-89
2023/03/03 09:39:56;;;;;;;14.48;5.85;;;6.30;99.90;;;;;;6186979;23;20495;-89
2023/03/03 09:42:27;;;;;;;16.50;6.93;;;6.20;99.90;;;;;;6187215;23;20095;-88
2023/03/03 09:45:17;;;;;;;15.10;6.40;;;6.20;99.90;;;;;;6161878;23;20494;-89
2023/03/03 09:47:55;;;;;;;13.70;6.65;;;6.30;99.90;;;;;;6187206;23;20095;-89
2023/03/03 09:50:51;;;;;;;14.25;6.18;;;6.40;99.90;;;;;;6187264;23;20016;-89
2023/03/03 09:53:29;;;;;;;11.60;4.70;;;6.60;99.90;;;;;;6186924;23;20020;-89
2023/03/03 09:56:23;;;;;;;14.07;5.53;;;6.80;99.90;;;;;;6162506;23;20017;-90
2023/03/03 09:59:00;;;;;;;11.77;4.95;;;7.10;99.90;;;;;;6096580;23;20076;-89
2023/03/03 10:01:38;;;;;;;14.07;4.68;;;7.30;99.90;;;;;;6073523;23;20084;-90
2023/03/03 10:04:13;;;;;;;13.88;5.32;;;7.50;99.90;;;;;;6072970;23;20663;-90
2023/03/03 10:06:48;;;;;;;11.65;5.75;;;7.60;99.90;;;;;;6097435;23;20025;-90
2023/03/03 10:09:33;;;;;;;13.25;5.05;;;7.80;99.90;;;;;;6097126;23;20520;-90
2023/03/03 10:12:10;;;;;;;13.52;5.07;;;8.10;99.90;;;;;;6073300;23;20092;-90
2023/03/03 10:14:57;;;;;;;14.23;5.85;;;8.40;99.90;;;;;;6097145;23;20497;-88
2023/03/03 10:17:51;;;;;;;14.40;6.18;;;8.60;99.90;;;;;;6096926;23;20017;-90
2023/03/03 10:20:35;;;;;;;16.58;6.22;;;8.80;99.90;;;;;;6097834;23;20089;-90
2023/03/03 10:23:21;;;;;;;12.82;5.63;;;8.70;99.90;;;;;;6097285;23;20093;-90
2023/03/03 10:26:00;;;;;;;12.40;5.13;;;8.60;99.90;;;;;;6072865;23;20018;-90
2023/03/03 10:28:40;;;;;;;13.82;6.05;;;8.50;99.90;;;;;;6073186;23;20022;-89
2023/03/03 10:31:25;;;;;;;11.88;5.68;;;8.50;99.90;;;;;;6073523;23;20053;-90
2023/03/03 10:34:28;;;;;;;14.43;4.60;;;8.40;99.90;;;;;;6097581;23;20018;-91
2023/03/03 10:37:07;;;;;;;10.68;4.72;;;8.40;99.90;;;;;;6187852;23;20021;-90
2023/03/03 10:39:59;;;;;;;10.57;4.28;;;8.30;99.90;;;;;;6187057;23;20020;-90
2023/03/03 10:43:02;;;;;;;12.40;4.90;;;8.20;99.90;;;;;;6162307;23;20020;-90
2023/03/03 10:46:04;;;;;;;10.23;4.97;;;8.20;99.90;;;;;;6187030;23;20009;-90
2023/03/03 10:48:41;;;;;;;11.82;4.80;;;8.20;99.90;;;;;;6137759;23;20020;-90
2023/03/03 10:51:25;;;;;;;10.07;4.13;;;8.30;99.90;;;;;;6161464;23;20055;-90
2023/03/03 10:54:29;;;;;;;11.07;4.50;;;8.40;99.90;;;;;;6162702;23;20472;-90
2023/03/03 10:57:15;;;;;;;12.75;5.38;;;8.40;99.90;;;;;;6184602;23;20027;-89
2023/03/03 10:59:59;;;;;;;10.82;5.18;;;8.50;99.90;;;;;;6186150;23;20525;-89
2023/03/03 11:02:52;;;;;;;12.38;5.07;;;8.50;99.90;;;;;;6162640;23;20095;-91
2023/03/03 11:05:37;;;;;;;12.13;4.85;;;8.40;99.90;;;;;;6161318;23;20520;-91
2023/03/03 11:08:10;;;;;;;11.98;4.80;;;8.30;99.90;;;;;;6186937;23;20016;-91
2023/03/03 11:11:11;;;;;;;11.98;5.05;;;8.30;99.90;;;;;;6162709;23;20012;-90
2023/03/03 11:13:40;;;;;;;12.20;5.15;;;8.40;99.90;;;;;;6117013;23;20024;-89
2023/03/03 11:16:24;;;;;;;10.20;4.72;;;8.40;99.90;;;;;;6162415;23;20025;-91
2023/03/03 11:19:00;;;;;;;10.25;4.68;;;8.40;99.90;;;;;;6161748;23;20351;-90
2023/03/03 11:21:44;;;;;;;10.40;5.20;;;8.40;99.90;;;;;;6187217;23;20067;-90
2023/03/03 11:24:20;;;;;;;13.77;5.90;;;8.30;99.90;;;;;;6161540;23;20103;-90
2023/03/03 11:27:11;;;;;;;11.95;5.50;;;8.20;99.90;;;;;;6186692;23;20016;-89
2023/03/03 11:29:49;;;;;;;11.68;5.45;;;8.00;99.90;;;;;;6186948;23;20027;-90
2023/03/03 11:32:47;;;;;;;14.90;5.20;;;8.00;99.90;;;;;;6162358;23;20379;-90
2023/03/03 11:35:19;;;;;;;10.95;4.68;;;7.90;99.90;;;;;;6162127;23;20020;-91
2023/03/03 11:37:58;;;;;;;10.88;4.88;;;7.90;99.90;;;;;;6161437;23;20017;-90
2023/03/03 11:40:59;;;;;;;11.35;4.75;;;7.80;99.90;;;;;;6161588;23;20016;-89
2023/03/03 11:43:42;;;;;;;11.77;5.07;;;7.70;99.90;;;;;;6171424;23;20017;-89
2023/03/03 11:46:15;;;;;;;11.90;4.60;;;7.60;99.90;;;;;;6185944;23;20016;-89
2023/03/03 11:49:05;;;;;;;13.00;5.05;;;7.50;99.90;;;;;;6161604;23;20023;-90
2023/03/03 11:51:51;;;;;;;11.00;5.18;;;7.50;99.90;;;;;;6162805;23;20078;-90
2023/03/03 11:54:28;;;;;;;11.73;4.97;;;7.40;99.90;;;;;;6162989;23;20355;-89
2023/03/03 11:57:09;;;;;;;12.18;4.07;;;7.40;99.90;;;;;;6188611;23;20020;-89
2023/03/03 11:59:38;;;;;;;9.35;4.32;;;7.40;99.90;;;;;;6163495;23;20108;-89
2023/03/03 12:02:09;;;;;;;11.68;5.13;;;7.40;99.90;;;;;;6164019;23;20016;-89
2023/03/03 12:04:46;;;;;;;15.10;5.38;;;7.50;99.90;;;;;;6188173;23;20016;-89
2023/03/03 12:07:40;;;;;;;13.27;4.72;;;7.50;99.90;;;;;;6163370;23;20052;-89
2023/03/03 12:10:28;;;;;;;11.77;4.63;;;7.60;99.90;;;;;;6188134;23;20009;-90
2023/03/03 12:13:13;;;;;;;10.93;3.97;;;7.60;99.90;;;;;;6164581;23;20012;-89
2023/03/03 12:16:06;;;;;;;11.38;4.13;;;7.60;99.90;;;;;;6163843;23;20352;-89
2023/03/03 12:18:38;;;;;;;9.77;4.20;;;7.70;99.90;;;;;;6163712;23;20351;-89
2023/03/03 12:21:26;;;;;;;13.60;4.90;;;7.80;99.90;;;;;;6164285;23;20139;-90
2023/03/03 12:23:58;;;;;;;11.20;4.32;;;7.80;99.90;;;;;;6189222;23;20017;-89
2023/03/03 12:26:43;;;;;;;10.50;4.10;;;7.90;99.90;;;;;;6163801;23;20017;-88
2023/03/03 12:29:35;;;;;;;10.48;3.70;;;8.00;99.90;;;;;;6163378;23;20020;-89
2023/03/03 12:32:12;;;;;;;10.38;4.03;;;8.10;99.90;;;;;;6161837;23;20020;-89
2023/03/03 12:34:49;;;;;;;11.10;3.80;;;8.20;99.90;;;;;;6162933;23;20040;-89
2023/03/03 12:37:31;;;;;;;9.88;3.47;;;8.20;99.90;;;;;;6188717;23;20024;-90
2023/03/03 12:40:07;;;;;;;10.25;3.22;;;8.40;99.90;;;;;;6187596;23;20456;-89
2023/03/03 12:42:39;;;;;;;10.20;2.53;;;8.50;99.90;;;;;;6189245;23;20051;-89
2023/03/03 12:45:41;;;;;;;7.95;2.53;;;8.70;99.90;;;;;;6164041;23;20012;-89
2023/03/03 12:48:23;;;;;;;8.77;2.85;;;8.90;99.90;;;;;;6074013;23;20131;-90
2023/03/03 12:51:05;;;;;;;7.13;2.10;;;8.90;99.90;;;;;;6075212;23;20611;-90
2023/03/03 12:53:33;;;;;;;7.70;2.33;;;8.90;99.90;;;;;;6098655;23;20022;-90
2023/03/03 12:56:04;;;;;;;7.75;2.25;;;8.90;99.90;;;;;;6095803;23;20512;-90
2023/03/03 12:58:45;;;;;;;8.38;2.58;;;9.10;99.90;;;;;;6096591;23;20018;-89
2023/03/03 13:01:21;;;;;;;10.07;3.35;;;9.20;99.90;;;;;;6073699;23;20476;-89
2023/03/03 13:04:00;;;;;;;6.22;2.22;;;9.40;99.90;;;;;;6073820;23;20018;-89
2023/03/03 13:06:34;;;;;;;7.50;2.38;;;9.50;99.00;;;;;;6097585;23;20021;-90
2023/03/03 13:09:27;;;;;;;7.60;1.83;;;9.70;98.80;;;;;;6097360;23;20018;-89
2023/03/03 13:12:30;;;;;;;6.00;1.25;;;9.80;92.20;;;;;;6073874;23;20029;-89